Time;durP1;ratioP1;P1;durP2;ratioP2;P2;SDS_P1;SDS_P2;PMS_P1;PMS_P2;Temp;Humidity;BMP_temperature;BMP_pressure;BME280_temperature;BME280_humidity;BME280_pressure;Samples;Min_cycle;Max_cycle;Signal;HPM_P1;HPM_P2
2023/07/04 00:00:19;;;;;;;6.43;3.47;;;12.10;99.90;;;;;;8264157;28;20321;-65
2023/07/04 00:04:21;;;;;;;5.97;3.60;;;12.00;99.90;;;;;;8265160;28;20215;-64
2023/07/04 00:08:26;;;;;;;4.90;3.27;;;12.00;99.90;;;;;;8266274;28;20198;-66
2023/07/04 00:12:31;;;;;;;4.53;3.17;;;12.00;99.90;;;;;;8271647;28;20278;-65
2023/07/04 00:16:32;;;;;;;5.13;3.13;;;11.90;99.90;;;;;;8278904;28;20293;-65
2023/07/04 00:20:36;;;;;;;5.60;3.20;;;11.80;99.90;;;;;;8272279;28;20280;-65
2023/07/04 00:24:37;;;;;;;6.90;3.40;;;11.70;99.90;;;;;;8272629;28;20215;-64
2023/07/04 00:28:42;;;;;;;6.27;3.50;;;11.70;99.90;;;;;;8270807;28;20337;-64
2023/07/04 00:32:43;;;;;;;9.10;3.93;;;11.60;99.90;;;;;;8266120;28;20186;-65
2023/07/04 00:36:45;;;;;;;5.57;3.07;;;11.60;99.90;;;;;;8278344;28;20189;-65
2023/07/04 00:40:46;;;;;;;6.47;3.43;;;11.50;99.90;;;;;;8267856;28;20263;-65
2023/07/04 00:44:55;;;;;;;5.73;3.63;;;11.50;99.90;;;;;;8266300;28;20204;-65
2023/07/04 00:49:00;;;;;;;4.73;3.13;;;11.40;99.90;;;;;;8267137;28;20230;-66
2023/07/04 00:53:08;;;;;;;6.37;3.60;;;11.40;1.00;;;;;;8261970;28;20180;-65
2023/07/04 00:57:09;;;;;;;5.57;3.10;;;11.40;1.00;;;;;;8263793;28;20189;-64
2023/07/04 01:01:10;;;;;;;5.47;3.27;;;11.40;1.00;;;;;;8264878;28;20199;-65
2023/07/04 01:05:15;;;;;;;7.90;3.77;;;11.50;1.00;;;;;;8265619;28;20211;-65
2023/07/04 01:09:17;;;;;;;6.90;3.70;;;11.50;1.00;;;;;;8269900;28;20215;-64
2023/07/04 01:13:48;;;;;;;7.00;3.20;;;11.50;1.00;;;;;;8264526;28;20222;-65
2023/07/04 01:17:51;;;;;;;9.60;4.30;;;11.60;1.00;;;;;;8266563;28;20202;-65
2023/07/04 01:22:00;;;;;;;7.80;4.30;;;11.60;39.00;;;;;;8262648;28;20272;-64
2023/07/04 01:26:37;;;;;;;10.33;5.30;;;11.70;67.60;;;;;;8271897;28;20178;-65
2023/07/04 01:30:43;;;;;;;10.40;5.27;;;11.80;99.90;;;;;;8273653;28;20228;-65
2023/07/04 01:34:45;;;;;;;11.63;5.27;;;12.00;99.90;;;;;;8286266;28;20200;-65
2023/07/04 01:38:46;;;;;;;9.80;5.27;;;12.10;99.90;;;;;;8275535;28;20216;-65
2023/07/04 01:42:49;;;;;;;12.40;5.17;;;12.30;34.10;;;;;;8270901;28;20185;-65
2023/07/04 01:46:51;;;;;;;11.07;5.13;;;12.40;1.00;;;;;;8275608;28;20207;-65
2023/07/04 01:50:51;;;;;;;9.27;5.00;;;12.50;1.00;;;;;;8271410;28;20209;-64
2023/07/04 01:54:52;;;;;;;8.37;4.90;;;12.60;1.00;;;;;;8268872;28;20187;-64
2023/07/04 01:59:12;;;;;;;7.73;4.67;;;12.70;1.00;;;;;;8159074;27;8556689;-65
2023/07/04 02:03:13;;;;;;;9.23;4.70;;;12.80;1.00;;;;;;8401818;28;20234;-65
2023/07/04 02:07:14;;;;;;;8.90;4.57;;;12.70;1.00;;;;;;8377000;28;20247;-64
2023/07/04 02:11:18;;;;;;;7.93;4.30;;;12.70;99.90;;;;;;8374723;28;20266;-63
2023/07/04 02:15:23;;;;;;;8.03;4.10;;;12.70;99.90;;;;;;8391599;28;20211;-65
2023/07/04 02:19:24;;;;;;;7.87;4.00;;;12.70;99.90;;;;;;8376924;28;20188;-68
2023/07/04 02:23:25;;;;;;;8.20;3.77;;;12.60;99.90;;;;;;8380575;28;20199;-65
2023/07/04 02:27:26;;;;;;;7.00;4.00;;;12.60;99.90;;;;;;8392407;28;20311;-65
2023/07/04 02:31:27;;;;;;;6.63;3.63;;;12.50;99.90;;;;;;8390436;28;20199;-65
2023/07/04 02:35:32;;;;;;;8.47;3.70;;;12.50;99.90;;;;;;8390242;28;20319;-66
2023/07/04 02:39:33;;;;;;;6.73;3.40;;;12.50;99.90;;;;;;8377175;28;20196;-64
2023/07/04 02:43:37;;;;;;;8.40;4.03;;;12.40;99.90;;;;;;8388617;28;20184;-65
2023/07/04 02:47:39;;;;;;;7.27;4.10;;;12.40;99.90;;;;;;8378544;28;20200;-65
2023/07/04 02:51:40;;;;;;;7.57;3.40;;;12.40;99.90;;;;;;8373013;28;20193;-67
2023/07/04 02:55:41;;;;;;;6.63;3.40;;;12.40;99.90;;;;;;8372868;28;20205;-70
2023/07/04 02:59:42;;;;;;;7.27;3.50;;;12.40;99.90;;;;;;8374924;28;20196;-65
2023/07/04 03:03:43;;;;;;;5.50;3.37;;;12.40;99.90;;;;;;8387905;28;20218;-67
2023/07/04 03:07:44;;;;;;;7.00;3.90;;;12.40;99.90;;;;;;8384232;28;20190;-66
2023/07/04 03:11:45;;;;;;;7.50;3.70;;;12.50;99.90;;;;;;8351205;28;20219;-66
2023/07/04 03:15:46;;;;;;;9.07;3.43;;;12.60;99.90;;;;;;8358600;28;20227;-67
2023/07/04 03:19:47;;;;;;;6.47;3.43;;;12.80;99.90;;;;;;8364124;28;20188;-67
2023/07/04 03:23:48;;;;;;;6.23;3.20;;;13.30;99.90;;;;;;8354206;28;20228;-66
2023/07/04 03:27:48;;;;;;;5.10;3.30;;;13.90;99.90;;;;;;8355946;28;20279;-66
2023/07/04 03:31:49;;;;;;;4.93;3.00;;;14.50;99.90;;;;;;8364749;28;20267;-67
2023/07/04 03:35:50;;;;;;;5.40;3.03;;;15.10;80.30;;;;;;8353266;28;20210;-65
2023/07/04 03:39:51;;;;;;;5.43;3.43;;;15.80;17.10;;;;;;8348328;28;20185;-65
2023/07/04 03:43:52;;;;;;;6.20;2.93;;;16.40;1.00;;;;;;8345906;28;20177;-66
2023/07/04 03:47:53;;;;;;;4.73;2.87;;;17.10;1.00;;;;;;8352623;28;20191;-66
2023/07/04 03:51:53;;;;;;;3.70;2.43;;;17.70;1.00;;;;;;8348751;28;20184;-68
2023/07/04 03:55:54;;;;;;;6.97;2.70;;;18.30;1.00;;;;;;8352249;28;20209;-67
2023/07/04 03:59:58;;;;;;;5.53;2.40;;;18.80;1.00;;;;;;8350915;28;20225;-67
2023/07/04 04:03:59;;;;;;;6.00;2.97;;;19.40;1.00;;;;;;8348095;28;20216;-67
2023/07/04 04:08:00;;;;;;;4.27;2.37;;;19.90;1.00;;;;;;8345682;28;20212;-67
2023/07/04 04:12:04;;;;;;;4.53;2.13;;;20.40;1.00;;;;;;8350804;28;20185;-68
2023/07/04 04:16:05;;;;;;;4.47;2.47;;;20.80;1.00;;;;;;8351424;28;20209;-67
2023/07/04 04:20:07;;;;;;;3.87;2.90;;;21.20;1.00;;;;;;8347958;28;20200;-66
2023/07/04 04:24:08;;;;;;;3.93;2.30;;;21.60;1.00;;;;;;8347963;28;20192;-67
2023/07/04 04:28:09;;;;;;;5.17;2.60;;;22.00;1.00;;;;;;8349223;28;20207;-68
2023/07/04 04:32:10;;;;;;;4.70;2.57;;;22.40;1.00;;;;;;8356409;28;20185;-66
2023/07/04 04:36:11;;;;;;;5.10;2.37;;;22.70;1.00;;;;;;8348275;28;20201;-66
2023/07/04 04:40:12;;;;;;;4.77;2.40;;;22.90;1.00;;;;;;8345796;28;20182;-68
2023/07/04 04:44:13;;;;;;;4.90;2.63;;;23.20;1.00;;;;;;8349025;28;20244;-68
2023/07/04 04:48:18;;;;;;;3.40;2.10;;;23.50;1.00;;;;;;8353717;28;20327;-67
2023/07/04 04:52:21;;;;;;;3.50;2.20;;;23.70;1.00;;;;;;8366313;28;20174;-65
2023/07/04 04:56:22;;;;;;;4.67;2.67;;;23.90;1.00;;;;;;8365010;28;20319;-68
2023/07/04 05:00:24;;;;;;;5.27;2.70;;;24.00;1.00;;;;;;8345887;28;20192;-67
2023/07/04 05:04:25;;;;;;;4.77;2.37;;;24.10;1.00;;;;;;8364576;28;20206;-66
2023/07/04 05:08:25;;;;;;;3.00;2.00;;;24.20;1.00;;;;;;8354168;28;20236;-65
2023/07/04 05:12:26;;;;;;;5.97;2.07;;;24.20;1.00;;;;;;8351568;28;20200;-65
2023/07/04 05:16:30;;;;;;;3.57;2.17;;;23.90;1.00;;;;;;8352176;28;20308;-66
2023/07/04 05:20:31;;;;;;;4.03;2.50;;;23.30;1.00;;;;;;8343729;28;20185;-67
2023/07/04 05:24:32;;;;;;;3.07;2.03;;;22.60;1.00;;;;;;8349459;28;20189;-66
2023/07/04 05:28:34;;;;;;;3.93;2.40;;;22.10;1.00;;;;;;8346339;28;20197;-68
2023/07/04 05:32:35;;;;;;;3.90;2.20;;;21.70;1.00;;;;;;8352275;28;20276;-67
2023/07/04 05:36:37;;;;;;;3.37;2.30;;;21.50;1.00;;;;;;8344115;28;20213;-68
2023/07/04 05:40:41;;;;;;;4.77;2.07;;;21.50;1.00;;;;;;8344940;28;20225;-68
2023/07/04 05:44:42;;;;;;;4.70;2.27;;;21.40;1.00;;;;;;8364442;28;20193;-67
2023/07/04 05:48:43;;;;;;;4.33;1.83;;;21.40;1.00;;;;;;8342470;28;20193;-66
2023/07/04 05:52:44;;;;;;;5.63;2.30;;;21.40;1.00;;;;;;8348784;28;20192;-67
2023/07/04 05:56:52;;;;;;;3.50;2.27;;;21.40;1.00;;;;;;8344445;28;20281;-67
2023/07/04 06:00:53;;;;;;;5.30;2.50;;;21.40;1.00;;;;;;8348984;28;20182;-67
2023/07/04 06:04:54;;;;;;;2.70;1.97;;;21.40;1.00;;;;;;8349146;28;20211;-68
2023/07/04 06:08:57;;;;;;;5.67;2.20;;;21.40;1.00;;;;;;8351070;28;20202;-66
2023/07/04 06:12:57;;;;;;;6.30;2.70;;;21.50;1.00;;;;;;8364823;28;20193;-66
2023/07/04 06:17:00;;;;;;;8.10;2.50;;;21.60;1.00;;;;;;8347063;28;20236;-66
2023/07/04 06:21:11;;;;;;;3.67;2.50;;;21.50;1.00;;;;;;8346498;28;20265;-64
2023/07/04 06:25:13;;;;;;;5.13;2.50;;;21.40;1.00;;;;;;8348933;28;20186;-66
2023/07/04 06:29:14;;;;;;;3.83;2.53;;;21.60;1.00;;;;;;8353674;28;20189;-68
2023/07/04 06:33:15;;;;;;;4.93;2.70;;;21.70;1.00;;;;;;8364076;28;20192;-65
2023/07/04 06:37:15;;;;;;;4.27;2.60;;;21.70;1.00;;;;;;8345742;28;20213;-67
2023/07/04 06:41:16;;;;;;;4.80;2.33;;;21.80;1.00;;;;;;8345293;28;20181;-67
2023/07/04 06:45:17;;;;;;;6.80;2.93;;;21.50;1.00;;;;;;8353814;28;20255;-66
2023/07/04 06:49:28;;;;;;;6.33;2.53;;;21.60;1.00;;;;;;8350916;28;20177;-66
2023/07/04 06:53:30;;;;;;;6.40;2.70;;;21.70;1.00;;;;;;8367738;28;20192;-65
2023/07/04 06:57:30;;;;;;;5.47;2.63;;;21.90;1.00;;;;;;8352667;28;20431;-65
2023/07/04 07:01:32;;;;;;;4.97;3.17;;;22.20;1.00;;;;;;8347902;28;20178;-66
2023/07/04 07:05:38;;;;;;;8.30;3.60;;;21.90;1.00;;;;;;8364942;28;20201;-65
2023/07/04 07:09:41;;;;;;;5.53;2.80;;;21.70;1.00;;;;;;8366114;28;20190;-64
2023/07/04 07:13:42;;;;;;;8.50;3.93;;;21.50;1.00;;;;;;8345875;28;20182;-66
2023/07/04 07:17:43;;;;;;;8.10;3.63;;;21.70;1.00;;;;;;8349344;28;20213;-67
2023/07/04 07:21:44;;;;;;;6.77;3.27;;;21.60;1.00;;;;;;8344401;28;20182;-66
2023/07/04 07:25:56;;;;;;;5.37;3.53;;;21.50;1.00;;;;;;8367780;28;20184;-66
2023/07/04 07:29:58;;;;;;;8.10;3.80;;;21.30;1.00;;;;;;8368363;28;20186;-68
2023/07/04 07:34:02;;;;;;;7.97;3.93;;;21.30;1.00;;;;;;8350469;28;20193;-65
2023/07/04 07:38:03;;;;;;;4.37;2.83;;;21.40;1.00;;;;;;8357096;28;20220;-67
2023/07/04 07:42:04;;;;;;;5.70;3.90;;;21.60;1.00;;;;;;8355133;28;20192;-67
2023/07/04 07:46:11;;;;;;;8.00;4.03;;;21.90;1.00;;;;;;8345954;28;20259;-66
2023/07/04 07:50:11;;;;;;;10.07;3.97;;;21.90;1.00;;;;;;8354212;28;20185;-67
2023/07/04 07:54:15;;;;;;;5.80;3.90;;;21.80;1.00;;;;;;8349498;28;20193;-65
2023/07/04 07:58:16;;;;;;;6.07;4.13;;;22.00;1.00;;;;;;8349608;28;20217;-66
2023/07/04 08:02:18;;;;;;;10.03;4.03;;;22.40;1.00;;;;;;8348035;28;20196;-67
2023/07/04 08:06:29;;;;;;;7.07;3.47;;;22.80;1.00;;;;;;8354027;28;20232;-68
2023/07/04 08:10:38;;;;;;;6.23;3.77;;;23.30;1.00;;;;;;8354883;28;20189;-67
2023/07/04 08:14:39;;;;;;;7.17;3.73;;;23.80;1.00;;;;;;8357513;28;20292;-66
2023/07/04 08:18:40;;;;;;;6.53;3.90;;;24.20;1.00;;;;;;8362799;28;20198;-64
2023/07/04 08:22:40;;;;;;;6.77;3.87;;;23.80;1.00;;;;;;8344318;28;20287;-67
2023/07/04 08:26:45;;;;;;;5.77;3.10;;;23.30;1.00;;;;;;8365236;28;20182;-68
2023/07/04 08:30:46;;;;;;;4.97;3.60;;;23.70;1.00;;;;;;8347217;28;20188;-69
2023/07/04 08:34:47;;;;;;;7.13;3.90;;;24.00;1.00;;;;;;8362789;28;20188;-66
2023/07/04 08:38:50;;;;;;;8.33;4.73;;;23.70;1.00;;;;;;8350397;28;20212;-65
2023/07/04 08:42:51;;;;;;;6.23;4.40;;;23.00;1.00;;;;;;8351155;28;20185;-67
2023/07/04 08:46:55;;;;;;;6.57;3.87;;;22.80;1.00;;;;;;8344301;28;20220;-66
2023/07/04 08:51:02;;;;;;;7.90;4.63;;;23.20;1.00;;;;;;8350355;28;20200;-67
2023/07/04 08:55:08;;;;;;;6.17;4.20;;;23.40;1.00;;;;;;8345359;28;20372;-64
2023/07/04 08:59:23;;;;;;;6.07;4.10;;;23.40;1.00;;;;;;8355149;28;20221;-66
2023/07/04 09:03:35;;;;;;;8.50;4.20;;;23.50;1.00;;;;;;8350024;28;20296;-66
2023/07/04 09:07:40;;;;;;;7.20;4.70;;;23.50;1.00;;;;;;8349346;28;20201;-66
2023/07/04 09:11:42;;;;;;;7.43;4.17;;;23.60;1.00;;;;;;8342541;28;20200;-66
2023/07/04 09:15:46;;;;;;;5.97;3.93;;;23.80;1.00;;;;;;8365404;28;20209;-69
2023/07/04 09:19:47;;;;;;;5.77;3.70;;;23.80;1.00;;;;;;8347811;28;20181;-67
2023/07/04 09:23:54;;;;;;;5.53;3.80;;;24.30;1.00;;;;;;8349809;28;20182;-68
2023/07/04 09:27:55;;;;;;;9.03;3.90;;;24.50;1.00;;;;;;8362184;28;20173;-65
2023/07/04 09:32:04;;;;;;;7.23;3.90;;;24.50;1.00;;;;;;8361175;28;20243;-67
2023/07/04 09:36:06;;;;;;;6.00;3.77;;;24.10;1.00;;;;;;8341365;28;20337;-67
2023/07/04 09:40:09;;;;;;;6.63;4.00;;;24.20;1.00;;;;;;8354376;28;20190;-69
2023/07/04 09:44:19;;;;;;;5.30;4.00;;;24.30;1.00;;;;;;8363426;28;20181;-68
2023/07/04 09:48:25;;;;;;;8.13;4.70;;;24.20;1.00;;;;;;8342932;28;20279;-67
2023/07/04 09:52:26;;;;;;;9.97;4.40;;;24.50;1.00;;;;;;8349702;28;20216;-69
2023/07/04 09:56:27;;;;;;;6.90;4.53;;;24.60;1.00;;;;;;8343770;28;20201;-67
2023/07/04 10:00:28;;;;;;;7.30;4.30;;;24.70;1.00;;;;;;8347360;28;20294;-68
2023/07/04 10:04:37;;;;;;;5.20;4.03;;;24.60;1.00;;;;;;8346455;28;20205;-67
2023/07/04 10:08:53;;;;;;;8.97;5.03;;;24.80;1.00;;;;;;8346117;28;20196;-67
2023/07/04 10:12:54;;;;;;;7.83;4.67;;;24.40;1.00;;;;;;8364463;28;20186;-70
2023/07/04 10:16:55;;;;;;;9.93;5.73;;;24.60;1.00;;;;;;8353479;28;20244;-67
2023/07/04 10:21:00;;;;;;;9.43;5.30;;;24.80;1.00;;;;;;8352997;28;20219;-67
2023/07/04 10:25:02;;;;;;;6.83;4.50;;;24.30;1.00;;;;;;8351609;28;20181;-68
2023/07/04 10:29:03;;;;;;;6.23;4.90;;;24.30;1.00;;;;;;8356166;28;20186;-68
2023/07/04 10:33:15;;;;;;;7.40;4.80;;;24.50;1.00;;;;;;8368373;28;20181;-66
2023/07/04 10:37:23;;;;;;;7.17;5.03;;;24.60;1.00;;;;;;8357094;28;20213;-67
2023/07/04 10:41:32;;;;;;;7.67;5.33;;;24.80;1.00;;;;;;8368482;28;20231;-72
2023/07/04 10:45:35;;;;;;;7.47;5.13;;;24.80;1.00;;;;;;8372376;28;20181;-69
2023/07/04 10:49:52;;;;;;;8.03;5.23;;;24.80;1.00;;;;;;8352300;28;20209;-70
2023/07/04 10:53:53;;;;;;;6.90;4.70;;;24.80;1.00;;;;;;8345188;28;20239;-69
2023/07/04 10:58:07;;;;;;;9.53;5.70;;;25.30;1.00;;;;;;8356161;28;20332;-69
2023/07/04 11:02:29;;;;;;;7.47;6.03;;;25.60;1.00;;;;;;8352348;28;20193;-66
2023/07/04 11:06:40;;;;;;;6.77;5.40;;;25.70;1.00;;;;;;8356065;28;20180;-68
2023/07/04 11:10:43;;;;;;;8.50;5.50;;;25.50;1.00;;;;;;8355226;28;20193;-69
2023/07/04 11:14:46;;;;;;;8.17;6.10;;;25.60;1.00;;;;;;8353829;28;20271;-69
2023/07/04 11:19:06;;;;;;;8.33;6.90;;;25.80;1.00;;;;;;8356397;28;20201;-68
2023/07/04 11:23:17;;;;;;;8.73;6.57;;;25.90;99.90;;;;;;8368365;28;20186;-66
2023/07/04 11:27:38;;;;;;;9.10;7.20;;;25.70;99.90;;;;;;8358112;28;20184;-69
2023/07/04 11:32:18;;;;;;;10.97;7.10;;;26.00;99.90;;;;;;8357173;28;20196;-69
2023/07/04 11:36:28;;;;;;;9.20;6.28;;;26.30;99.90;;;;;;8351466;28;20263;-69
2023/07/04 11:40:32;;;;;;;12.03;5.97;;;26.00;99.90;;;;;;8364588;28;20221;-68
2023/07/04 11:44:56;;;;;;;9.68;6.30;;;26.00;1.00;;;;;;8355400;28;20177;-70
2023/07/04 11:49:01;;;;;;;9.33;7.47;;;26.30;99.90;;;;;;8355557;28;20255;-68
2023/07/04 11:53:30;;;;;;;9.20;6.45;;;26.80;99.90;;;;;;8368889;28;20181;-68
2023/07/04 11:57:55;;;;;;;7.60;6.50;;;26.80;99.90;;;;;;8348888;28;20231;-71
2023/07/04 12:02:03;;;;;;;9.60;6.70;;;26.50;99.90;;;;;;8353683;28;20189;-66
2023/07/04 12:06:05;;;;;;;10.10;6.93;;;25.90;99.90;;;;;;8353390;28;20209;-69
2023/07/04 12:10:17;;;;;;;8.53;6.67;;;25.30;99.90;;;;;;8346051;28;20215;-70
2023/07/04 12:14:18;;;;;;;10.67;8.50;;;25.40;1.00;;;;;;8355578;28;20185;-71
2023/07/04 12:18:24;;;;;;;9.50;8.37;;;25.70;99.90;;;;;;8358166;28;20229;-72
2023/07/04 12:22:25;;;;;;;10.63;7.60;;;26.00;99.90;;;;;;8351106;28;20189;-68
2023/07/04 12:26:30;;;;;;;9.82;7.60;;;26.40;99.90;;;;;;8349708;28;20185;-70
2023/07/04 12:30:32;;;;;;;10.45;7.78;;;26.40;1.00;;;;;;8353498;28;20181;-69
2023/07/04 12:34:33;;;;;;;11.85;7.10;;;26.90;99.90;;;;;;8363871;28;20189;-69
2023/07/04 12:38:40;;;;;;;10.23;7.68;;;27.60;99.90;;;;;;8366727;28;20209;-69
2023/07/04 12:42:43;;;;;;;9.23;7.68;;;27.70;99.90;;;;;;8348697;28;20304;-71
2023/07/04 12:46:44;;;;;;;9.27;7.15;;;27.70;1.00;;;;;;8347844;28;20200;-68
2023/07/04 12:50:49;;;;;;;8.65;7.28;;;27.50;99.90;;;;;;8351858;28;20189;-68
2023/07/04 12:54:51;;;;;;;14.98;8.80;;;27.40;99.90;;;;;;8345423;28;20242;-69
2023/07/04 12:58:52;;;;;;;10.15;9.15;;;26.90;99.90;;;;;;8350745;28;20205;-66
2023/07/04 13:03:02;;;;;;;10.65;8.10;;;27.00;99.90;;;;;;8349619;28;20255;-67
2023/07/04 13:07:03;;;;;;;12.48;8.75;;;27.20;99.90;;;;;;8347343;28;20181;-68
2023/07/04 13:11:06;;;;;;;9.93;8.00;;;27.10;99.90;;;;;;8351532;28;20186;-69
2023/07/04 13:15:11;;;;;;;12.15;8.25;;;27.00;99.90;;;;;;8351908;28;20193;-68
2023/07/04 13:19:12;;;;;;;9.10;8.13;;;26.70;99.90;;;;;;8346948;28;20204;-66
2023/07/04 13:23:24;;;;;;;9.98;8.52;;;26.60;99.90;;;;;;8347735;28;20180;-69
2023/07/04 13:27:25;;;;;;;10.82;9.10;;;26.80;99.90;;;;;;8348165;28;20190;-67
2023/07/04 13:31:26;;;;;;;12.73;8.93;;;26.60;99.90;;;;;;8352951;28;20196;-69
2023/07/04 13:35:39;;;;;;;11.57;8.90;;;26.60;99.90;;;;;;8351474;28;20181;-68
2023/07/04 13:39:43;;;;;;;11.95;8.80;;;26.70;99.90;;;;;;8363335;28;20238;-68
2023/07/04 13:43:44;;;;;;;11.07;9.90;;;27.10;99.90;;;;;;8345518;28;20182;-68
2023/07/04 13:47:47;;;;;;;12.80;9.57;;;27.70;99.90;;;;;;8365966;28;20184;-67
2023/07/04 13:51:50;;;;;;;12.25;9.88;;;27.80;99.90;;;;;;8343549;28;20189;-67
2023/07/04 13:55:51;;;;;;;13.43;11.23;;;27.80;99.90;;;;;;8343354;28;20189;-68
2023/07/04 13:59:52;;;;;;;15.63;10.82;;;27.80;99.90;;;;;;8360009;28;20277;-69
2023/07/04 14:03:53;;;;;;;11.68;10.40;;;27.60;99.90;;;;;;8346347;28;20198;-68
2023/07/04 14:07:57;;;;;;;11.73;10.18;;;27.80;99.90;;;;;;8354584;28;20246;-68
2023/07/04 14:12:00;;;;;;;12.25;10.27;;;28.20;99.90;;;;;;8353057;28;20190;-69
2023/07/04 14:16:03;;;;;;;14.50;9.88;;;27.90;99.90;;;;;;8361841;28;20240;-69
2023/07/04 14:20:04;;;;;;;11.70;10.40;;;27.80;99.90;;;;;;8351465;28;20182;-69
2023/07/04 14:24:06;;;;;;;13.35;10.15;;;27.80;99.90;;;;;;8359578;28;20182;-71
2023/07/04 14:28:07;;;;;;;12.45;11.07;;;27.90;99.90;;;;;;8362187;28;20178;-69
2023/07/04 14:32:08;;;;;;;11.23;9.82;;;28.40;99.90;;;;;;8362365;28;20264;-69
2023/07/04 14:36:09;;;;;;;11.93;10.13;;;28.30;99.90;;;;;;8349397;28;20204;-68
2023/07/04 14:40:11;;;;;;;12.35;10.52;;;28.20;99.90;;;;;;8345626;28;20177;-69
2023/07/04 14:44:12;;;;;;;11.38;10.13;;;27.70;99.90;;;;;;8360333;28;20181;-68
2023/07/04 14:48:13;;;;;;;10.10;9.00;;;27.40;99.90;;;;;;8348896;28;20175;-68
2023/07/04 14:52:14;;;;;;;12.43;10.68;;;27.50;99.90;;;;;;8347559;28;20192;-68
2023/07/04 14:56:16;;;;;;;13.55;10.57;;;27.60;99.90;;;;;;8349113;28;20201;-70
2023/07/04 15:00:20;;;;;;;13.23;11.48;;;27.60;99.90;;;;;;8341940;28;20190;-69
2023/07/04 15:04:21;;;;;;;11.60;10.38;;;27.30;99.90;;;;;;8355226;28;20206;-70
2023/07/04 15:08:22;;;;;;;13.52;10.52;;;27.10;99.90;;;;;;8350300;28;20252;-70
2023/07/04 15:12:29;;;;;;;13.38;10.45;;;27.00;99.90;;;;;;8369770;28;20194;-70
2023/07/04 15:16:30;;;;;;;11.95;10.05;;;27.00;99.90;;;;;;8349990;28;20213;-69
2023/07/04 15:20:30;;;;;;;12.90;11.50;;;27.20;99.90;;;;;;8357106;28;20268;-69
2023/07/04 15:24:31;;;;;;;13.25;11.70;;;27.40;99.90;;;;;;8364838;28;20205;-69
2023/07/04 15:28:32;;;;;;;12.57;11.18;;;27.40;99.90;;;;;;8357747;28;20189;-70
2023/07/04 15:32:34;;;;;;;12.18;10.88;;;27.30;99.90;;;;;;8351139;28;20182;-69
2023/07/04 15:36:35;;;;;;;14.18;11.05;;;27.10;99.90;;;;;;8368343;28;20219;-69
2023/07/04 15:40:36;;;;;;;14.20;11.90;;;27.10;99.90;;;;;;8368892;28;20192;-70
2023/07/04 15:44:37;;;;;;;14.27;12.32;;;27.20;99.90;;;;;;8355546;28;20189;-69
2023/07/04 15:48:39;;;;;;;14.40;12.02;;;27.30;99.90;;;;;;8352260;28;20276;-69
2023/07/04 15:52:41;;;;;;;14.88;12.30;;;27.40;99.90;;;;;;8362072;28;20189;-69
2023/07/04 15:56:41;;;;;;;16.08;13.55;;;27.70;99.90;;;;;;8350245;28;20224;-68
2023/07/04 16:00:47;;;;;;;15.82;14.15;;;27.80;99.90;;;;;;8362461;28;20280;-68
2023/07/04 16:04:48;;;;;;;17.98;14.95;;;27.70;99.90;;;;;;8348991;28;20193;-68
2023/07/04 16:08:49;;;;;;;17.00;14.38;;;26.90;99.90;;;;;;8346482;28;20280;-69
2023/07/04 16:12:50;;;;;;;18.42;15.00;;;26.50;99.90;;;;;;8367512;28;20185;-67
2023/07/04 16:16:50;;;;;;;19.33;14.68;;;26.60;99.90;;;;;;8369059;28;20197;-68
2023/07/04 16:20:53;;;;;;;18.55;14.80;;;26.90;99.90;;;;;;8348675;28;20237;-67
2023/07/04 16:24:54;;;;;;;19.60;15.43;;;26.70;99.90;;;;;;8363133;28;20173;-68
2023/07/04 16:28:57;;;;;;;17.15;15.27;;;26.80;99.90;;;;;;8344814;28;20230;-66
2023/07/04 16:32:57;;;;;;;20.38;15.65;;;26.70;99.90;;;;;;8346779;28;20177;-68
2023/07/04 16:36:58;;;;;;;16.02;14.15;;;26.60;99.90;;;;;;8349132;28;20323;-67
2023/07/04 16:41:06;;;;;;;17.00;15.07;;;26.30;99.90;;;;;;8344195;28;20208;-67
2023/07/04 16:45:09;;;;;;;16.70;13.93;;;26.00;99.90;;;;;;8352210;28;20196;-66
2023/07/04 16:49:10;;;;;;;15.67;12.70;;;25.80;99.90;;;;;;8365957;28;20209;-67
2023/07/04 16:53:11;;;;;;;17.90;15.30;;;25.90;99.90;;;;;;8360893;28;20194;-67
2023/07/04 16:57:11;;;;;;;16.87;13.83;;;26.00;99.90;;;;;;8349311;28;20221;-68
2023/07/04 17:01:12;;;;;;;17.50;14.70;;;26.00;99.90;;;;;;8346183;28;20264;-67
2023/07/04 17:05:13;;;;;;;17.30;14.37;;;25.80;99.90;;;;;;8344290;28;20260;-67
2023/07/04 17:09:15;;;;;;;18.43;14.77;;;25.60;99.90;;;;;;8362775;28;20181;-66
2023/07/04 17:13:16;;;;;;;16.27;14.03;;;25.60;99.90;;;;;;8364816;28;20185;-68
2023/07/04 17:17:17;;;;;;;14.93;12.80;;;25.60;99.90;;;;;;8346258;28;20240;-67
2023/07/04 17:21:18;;;;;;;17.00;14.00;;;25.80;99.90;;;;;;8350120;28;20174;-67
2023/07/04 17:25:20;;;;;;;15.60;12.50;;;26.10;99.90;;;;;;8349107;28;20189;-71
2023/07/04 17:29:21;;;;;;;15.55;12.85;;;26.50;99.90;;;;;;8366439;28;20182;-70
2023/07/04 17:33:22;;;;;;;15.35;13.40;;;26.70;99.90;;;;;;8350249;28;20291;-69
2023/07/04 17:37:23;;;;;;;16.80;12.23;;;26.80;99.90;;;;;;8353701;28;20205;-70
2023/07/04 17:41:26;;;;;;;14.63;12.75;;;26.90;99.90;;;;;;8366299;28;20186;-70
2023/07/04 17:45:28;;;;;;;15.98;12.75;;;27.00;99.90;;;;;;8368839;28;20288;-70
2023/07/04 17:49:28;;;;;;;14.95;12.88;;;27.30;99.90;;;;;;8368820;28;20182;-69
2023/07/04 17:53:30;;;;;;;14.52;12.65;;;27.10;99.90;;;;;;8352831;28;20182;-71
2023/07/04 17:57:31;;;;;;;14.25;12.73;;;26.70;99.90;;;;;;8365696;28;20235;-70
2023/07/04 18:01:33;;;;;;;17.13;13.70;;;26.30;99.90;;;;;;8347819;28;20277;-70
2023/07/04 18:05:34;;;;;;;16.97;12.87;;;26.10;99.90;;;;;;8350464;28;20212;-69
2023/07/04 18:09:35;;;;;;;14.17;12.47;;;26.00;99.90;;;;;;8356655;28;20189;-70
2023/07/04 18:13:37;;;;;;;17.13;12.80;;;25.80;99.90;;;;;;8343813;28;20201;-70
2023/07/04 18:17:42;;;;;;;16.20;12.03;;;25.60;99.90;;;;;;8367968;28;20227;-71
2023/07/04 18:21:49;;;;;;;13.40;12.00;;;25.50;99.90;;;;;;8347982;28;20188;-69
2023/07/04 18:25:51;;;;;;;14.67;11.50;;;25.20;99.90;;;;;;8353869;28;20192;-69
2023/07/04 18:29:52;;;;;;;13.33;11.77;;;25.10;99.90;;;;;;8349924;28;20189;-69
2023/07/04 18:33:59;;;;;;;14.07;12.67;;;24.80;99.90;;;;;;8355750;28;20192;-70
2023/07/04 18:37:59;;;;;;;13.73;11.40;;;24.60;99.90;;;;;;8355029;28;20293;-68
2023/07/04 18:42:00;;;;;;;12.00;10.70;;;24.60;99.90;;;;;;8375815;28;20193;-69
2023/07/04 18:46:02;;;;;;;11.40;10.20;;;24.30;99.90;;;;;;8372023;28;20219;-70
2023/07/04 18:50:02;;;;;;;10.80;9.70;;;23.90;99.90;;;;;;8358936;28;20181;-69
2023/07/04 18:54:05;;;;;;;14.40;11.03;;;23.40;99.90;;;;;;8353551;28;20209;-69
2023/07/04 18:58:06;;;;;;;12.23;10.33;;;22.90;99.90;;;;;;8366569;28;20300;-67
2023/07/04 19:02:07;;;;;;;12.23;10.50;;;22.40;99.90;;;;;;8354428;28;20185;-67
2023/07/04 19:06:13;;;;;;;13.27;11.03;;;21.90;99.90;;;;;;8356428;28;20201;-67
2023/07/04 19:10:14;;;;;;;13.30;10.80;;;21.40;99.90;;;;;;8370947;28;20204;-67
2023/07/04 19:14:18;;;;;;;11.63;10.43;;;20.90;99.90;;;;;;8353496;28;20239;-67
2023/07/04 19:18:19;;;;;;;12.10;10.47;;;20.50;99.90;;;;;;8365506;28;20205;-66
2023/07/04 19:22:20;;;;;;;13.63;11.23;;;20.10;1.00;;;;;;8353104;28;20251;-67
2023/07/04 19:26:21;;;;;;;13.50;11.00;;;19.80;1.00;;;;;;8355304;28;20239;-66
2023/07/04 19:30:22;;;;;;;13.57;10.80;;;19.50;1.00;;;;;;8369497;28;20215;-68
2023/07/04 19:34:24;;;;;;;13.90;10.77;;;19.10;1.00;;;;;;8365807;28;20181;-67
2023/07/04 19:38:26;;;;;;;14.10;11.63;;;18.80;1.00;;;;;;8351220;28;20396;-65
2023/07/04 19:42:27;;;;;;;16.80;11.90;;;18.60;1.00;;;;;;8367028;28;20178;-65
2023/07/04 19:46:28;;;;;;;15.30;11.10;;;18.40;1.00;;;;;;8350568;28;20188;-68
2023/07/04 19:50:30;;;;;;;11.80;10.00;;;18.20;1.00;;;;;;8357015;28;20182;-69
2023/07/04 19:54:31;;;;;;;13.93;11.60;;;18.00;1.00;;;;;;8370566;28;20178;-69
2023/07/04 19:58:32;;;;;;;14.67;11.17;;;17.70;1.00;;;;;;8365432;28;20212;-67
2023/07/04 20:02:33;;;;;;;14.87;11.80;;;17.50;1.00;;;;;;8365259;28;20223;-66
2023/07/04 20:06:37;;;;;;;14.37;12.37;;;17.40;1.00;;;;;;8365606;28;20192;-67
2023/07/04 20:10:38;;;;;;;14.50;11.83;;;17.20;1.00;;;;;;8369237;28;20222;-66
2023/07/04 20:14:39;;;;;;;14.43;11.80;;;16.90;1.00;;;;;;8351967;28;20190;-66
2023/07/04 20:18:42;;;;;;;13.73;11.33;;;16.60;1.00;;;;;;8368731;28;20259;-66
2023/07/04 20:22:43;;;;;;;14.73;12.03;;;16.40;1.00;;;;;;8367362;28;20212;-66
2023/07/04 20:26:44;;;;;;;12.80;11.47;;;16.30;1.00;;;;;;8366388;28;20209;-66
2023/07/04 20:30:46;;;;;;;14.83;12.47;;;16.10;1.00;;;;;;8366084;28;20248;-66
2023/07/04 20:34:47;;;;;;;14.27;12.57;;;16.00;1.00;;;;;;8357504;28;20181;-66
2023/07/04 20:38:51;;;;;;;14.30;11.67;;;15.80;1.00;;;;;;8366216;28;20201;-66
2023/07/04 20:42:52;;;;;;;13.83;11.27;;;15.60;1.00;;;;;;8367885;28;20185;-65
2023/07/04 20:46:53;;;;;;;13.10;11.30;;;15.40;15.70;;;;;;8367654;28;20177;-66
2023/07/04 20:50:56;;;;;;;14.00;11.67;;;15.20;25.10;;;;;;8362134;28;20235;-66
2023/07/04 20:54:58;;;;;;;15.47;11.87;;;15.20;23.20;;;;;;8355732;28;20200;-66
2023/07/04 20:58:59;;;;;;;14.23;11.33;;;15.10;25.70;;;;;;8363404;28;20213;-66